createdAt,value
2023-04-30T00:03:37.750Z,98895.48
2023-04-30T00:08:42.105Z,98894.73
2023-04-30T00:13:46.310Z,98895.33
2023-04-30T00:18:50.168Z,98890.53
2023-04-30T00:23:54.288Z,98888.73
2023-04-30T00:28:58.525Z,98891.39
2023-04-30T00:34:02.453Z,98887.80
2023-04-30T00:39:06.795Z,98887.95
2023-04-30T00:44:10.436Z,98895.77
2023-04-30T00:49:14.435Z,98898.80
2023-04-30T00:54:20.126Z,98904.19
2023-04-30T00:59:24.560Z,98909.79
2023-04-30T01:04:28.802Z,98908.85
2023-04-30T01:09:33.052Z,98907.80
2023-04-30T01:14:45.666Z,98905.52
2023-04-30T01:19:49.783Z,98903.91
2023-04-30T01:25:13.872Z,98901.98
2023-04-30T01:30:18.958Z,98902.79
2023-04-30T01:35:37.326Z,98903.96
2023-04-30T01:40:46.714Z,98906.73
2023-04-30T01:46:02.515Z,98909.49
2023-04-30T01:51:22.090Z,98914.44
2023-04-30T01:56:33.172Z,98912.21
2023-04-30T02:06:08.583Z,98921.55
2023-04-30T02:11:15.907Z,98921.79
2023-04-30T02:16:23.274Z,98925.40
2023-04-30T02:21:31.755Z,98922.66
2023-04-30T02:26:38.995Z,98925.02
2023-04-30T02:31:46.481Z,98924.89
2023-04-30T02:36:53.868Z,98933.96
2023-04-30T02:42:00.974Z,98929.36
2023-04-30T02:47:12.947Z,98939.58
2023-04-30T02:52:27.449Z,98943.40
2023-04-30T02:57:36.192Z,98946.63
2023-04-30T03:02:43.498Z,98947.30
2023-04-30T03:07:51.053Z,98951.60
2023-04-30T03:13:00.066Z,98955.64
2023-04-30T03:18:08.009Z,98959.75
2023-04-30T03:23:15.293Z,98964.42
2023-04-30T03:28:22.733Z,98969.89
2023-04-30T03:33:30.640Z,98971.31
2023-04-30T03:38:38.017Z,98976.90
2023-04-30T03:43:45.323Z,98980.29
2023-04-30T03:48:53.132Z,98989.21
2023-04-30T03:54:00.761Z,98995.68
2023-04-30T03:59:08.334Z,99005.33
2023-04-30T04:04:16.696Z,99006.62
2023-04-30T04:09:24.201Z,99016.98
2023-04-30T04:14:31.525Z,99024.13
2023-04-30T04:19:38.710Z,99025.21
2023-04-30T04:24:46.129Z,99032.95
2023-04-30T04:29:55.364Z,99040.05
2023-04-30T04:35:03.297Z,99049.20
2023-04-30T04:40:12.706Z,99056.30
2023-04-30T04:45:21.121Z,99069.16
2023-04-30T04:50:28.949Z,99076.96
2023-04-30T04:55:36.209Z,99079.70
2023-04-30T05:00:43.988Z,99088.27
2023-04-30T05:05:52.034Z,99096.06
2023-04-30T05:10:59.452Z,99109.13
2023-04-30T05:16:07.915Z,99119.29
2023-04-30T05:21:15.707Z,99129.89
2023-04-30T05:26:24.735Z,99136.92
2023-04-30T05:31:32.783Z,99146.24
2023-04-30T05:36:41.993Z,99161.24
2023-04-30T05:41:51.097Z,99172.62
2023-04-30T05:46:59.425Z,99181.95
2023-04-30T05:52:07.566Z,99192.23
2023-04-30T05:57:15.260Z,99206.59
2023-04-30T06:02:23.319Z,99206.20
2023-04-30T06:07:30.890Z,99218.15
2023-04-30T06:12:38.470Z,99223.52
2023-04-30T06:17:45.715Z,99232.64
2023-04-30T06:22:53.303Z,99236.44
2023-04-30T06:28:00.715Z,99244.55
2023-04-30T06:33:08.463Z,99254.33
2023-04-30T06:38:16.329Z,99254.02
2023-04-30T06:43:24.690Z,99257.11
2023-04-30T06:48:32.720Z,99267.79
2023-04-30T06:53:41.057Z,99270.51
2023-04-30T06:58:50.325Z,99281.42
2023-04-30T07:03:57.929Z,99290.36
2023-04-30T07:09:05.686Z,99297.27
2023-04-30T07:14:13.453Z,99300.05
2023-04-30T07:19:20.800Z,99304.76
2023-04-30T07:24:28.123Z,99309.66
2023-04-30T07:29:35.280Z,99315.11
2023-04-30T07:34:42.720Z,99318.52
2023-04-30T07:39:50.770Z,99327.45
2023-04-30T07:44:58.348Z,99329.92
2023-04-30T07:50:06.274Z,99337.96
2023-04-30T07:55:14.411Z,99333.03
2023-04-30T08:00:22.055Z,99338.29
2023-04-30T08:05:30.138Z,99343.27
2023-04-30T08:10:37.567Z,99341.66
2023-04-30T08:15:45.045Z,99344.38
2023-04-30T08:20:52.243Z,99343.61
2023-04-30T08:25:59.557Z,99343.48
2023-04-30T08:31:07.416Z,99346.09
2023-04-30T08:36:14.821Z,99350.23
2023-04-30T08:41:27.446Z,99352.89
2023-04-30T08:46:38.052Z,99356.81
2023-04-30T08:51:46.124Z,99359.35
2023-04-30T08:56:53.413Z,99359.23
2023-04-30T09:02:01.622Z,99360.14
2023-04-30T09:07:09.713Z,99358.71
2023-04-30T09:12:19.960Z,99367.57
2023-04-30T09:17:28.565Z,99376.90
2023-04-30T09:22:36.933Z,99372.73
2023-04-30T09:27:44.975Z,99372.94
2023-04-30T09:32:59.438Z,99369.75
2023-04-30T09:38:07.118Z,99372.54
2023-04-30T09:43:15.593Z,99369.86
2023-04-30T09:48:25.668Z,99366.27
2023-04-30T09:53:34.963Z,99368.00
2023-04-30T09:58:45.565Z,99369.55
2023-04-30T10:03:53.729Z,99359.37
2023-04-30T10:09:02.453Z,99357.77
2023-04-30T10:14:13.963Z,99352.52
2023-04-30T10:19:24.910Z,99355.52
2023-04-30T10:24:33.346Z,99349.36
2023-04-30T10:29:40.582Z,99349.14
2023-04-30T10:34:56.851Z,99350.45
2023-04-30T10:40:06.071Z,99349.09
2023-04-30T10:45:15.186Z,99339.66
2023-04-30T10:50:26.554Z,99345.36
2023-04-30T10:55:40.210Z,99334.02
2023-04-30T11:01:01.717Z,99340.52
2023-04-30T11:06:20.186Z,99326.95
2023-04-30T11:11:27.796Z,99330.78
2023-04-30T11:16:37.967Z,99329.36
2023-04-30T11:22:05.751Z,99333.86
2023-04-30T11:27:15.891Z,99332.91
2023-04-30T11:32:24.939Z,99328.70
2023-04-30T11:37:36.608Z,99335.58
2023-04-30T11:42:46.359Z,99334.45
2023-04-30T11:47:56.248Z,99337.02
2023-04-30T11:53:05.546Z,99328.73
2023-04-30T12:04:05.464Z,99337.49
2023-04-30T12:09:13.277Z,99336.98
2023-04-30T12:14:20.557Z,99337.37
2023-04-30T12:19:28.139Z,99334.72
2023-04-30T12:24:35.743Z,99328.63
2023-04-30T12:29:45.708Z,99330.69
2023-04-30T12:34:53.108Z,99327.50
2023-04-30T12:40:00.578Z,99325.21
2023-04-30T12:45:09.765Z,99323.58
2023-04-30T12:50:17.212Z,99314.27
2023-04-30T12:55:27.432Z,99313.52
2023-04-30T13:00:46.630Z,99316.90
2023-04-30T13:05:55.234Z,99312.05
2023-04-30T13:11:02.580Z,99306.95
2023-04-30T13:16:10.229Z,99303.15
2023-04-30T13:21:17.737Z,99308.89
2023-04-30T13:26:26.563Z,99311.20
2023-04-30T13:31:34.738Z,99312.37
2023-04-30T13:36:42.030Z,99302.52
2023-04-30T13:41:51.044Z,99302.66
2023-04-30T13:46:58.622Z,99303.67
2023-04-30T13:52:06.509Z,99293.14
2023-04-30T13:57:13.978Z,99299.02
2023-04-30T14:02:21.682Z,99295.58
2023-04-30T14:07:29.521Z,99299.98
2023-04-30T14:12:38.588Z,99290.23
2023-04-30T14:17:46.190Z,99292.58
2023-04-30T14:22:54.415Z,99292.51
2023-04-30T14:28:01.878Z,99292.59
2023-04-30T14:33:11.375Z,99301.30
2023-04-30T14:38:18.954Z,99302.62
2023-04-30T14:43:26.420Z,99301.52
2023-04-30T14:48:34.412Z,99300.77
2023-04-30T14:53:42.361Z,99304.23
2023-04-30T14:58:49.792Z,99309.35
2023-04-30T15:03:57.440Z,99307.69
2023-04-30T15:09:05.364Z,99308.39
2023-04-30T15:14:12.959Z,99310.04
2023-04-30T15:19:20.478Z,99309.02
2023-04-30T15:24:27.729Z,99310.30
2023-04-30T15:29:35.328Z,99315.04
2023-04-30T15:34:42.848Z,99318.23
2023-04-30T15:39:50.124Z,99315.40
2023-04-30T15:44:57.678Z,99317.55
2023-04-30T15:53:44.339Z,99324.73
2023-04-30T15:58:51.656Z,99324.98
2023-04-30T16:04:00.691Z,99326.16
2023-04-30T16:09:09.182Z,99334.85
2023-04-30T16:14:16.942Z,99329.06
2023-04-30T16:19:24.375Z,99330.06
2023-04-30T16:24:31.726Z,99335.58
2023-04-30T16:29:39.049Z,99336.26
2023-04-30T16:34:48.370Z,99339.42
2023-04-30T16:39:56.574Z,99345.15
2023-04-30T16:45:05.740Z,99345.79
2023-04-30T16:50:13.804Z,99344.40
2023-04-30T16:55:21.675Z,99350.21
2023-04-30T17:00:28.906Z,99353.95
2023-04-30T17:05:36.002Z,99354.69
2023-04-30T17:10:43.475Z,99354.98
2023-04-30T17:15:50.885Z,99363.69
2023-04-30T17:20:58.247Z,99366.21
2023-04-30T17:26:05.796Z,99373.04
2023-04-30T17:31:13.818Z,99381.84
2023-04-30T17:36:21.149Z,99385.19
2023-04-30T17:41:30.655Z,99391.25
2023-04-30T17:54:34.108Z,99408.23
2023-04-30T17:59:41.884Z,99413.14
2023-04-30T18:04:49.516Z,99414.27
2023-04-30T18:09:59.353Z,99415.34
2023-04-30T18:15:08.650Z,99422.59
2023-04-30T18:20:16.097Z,99424.05
2023-04-30T18:25:23.803Z,99428.33
2023-04-30T18:30:31.304Z,99435.84
2023-04-30T18:35:38.356Z,99441.41
2023-04-30T18:40:45.716Z,99447.22
2023-04-30T18:45:53.290Z,99449.55
2023-04-30T18:51:00.717Z,99453.98
2023-04-30T18:56:09.479Z,99455.11
2023-04-30T19:01:18.214Z,99459.30
2023-04-30T19:06:25.571Z,99465.88
2023-04-30T19:11:35.643Z,99468.03
2023-04-30T19:16:42.905Z,99472.67
2023-04-30T19:21:50.292Z,99477.27
2023-04-30T19:26:57.861Z,99476.89
2023-04-30T19:32:05.244Z,99477.94
2023-04-30T19:37:12.342Z,99480.77
2023-04-30T19:42:17.790Z,99485.55
2023-04-30T19:47:25.924Z,99492.53
2023-04-30T19:52:33.641Z,99498.52
2023-04-30T19:57:40.843Z,99498.27
2023-04-30T20:02:48.165Z,99503.92
2023-04-30T20:07:55.750Z,99504.46
2023-04-30T20:13:03.188Z,99508.54
2023-04-30T20:18:11.070Z,99514.73
2023-04-30T20:23:20.550Z,99518.06
2023-04-30T20:28:27.698Z,99522.52
2023-04-30T20:33:35.545Z,99519.41
2023-04-30T20:38:42.741Z,99523.02
2023-04-30T20:43:49.935Z,99523.33
2023-04-30T20:49:04.035Z,99525.14
2023-04-30T20:54:11.382Z,99526.67
2023-04-30T20:59:18.729Z,99527.48
2023-04-30T21:04:25.950Z,99523.14
2023-04-30T21:09:35.766Z,99521.75
2023-04-30T21:14:42.967Z,99524.71
2023-04-30T21:19:50.137Z,99528.09
2023-04-30T21:24:57.686Z,99536.86
2023-04-30T21:30:05.983Z,99536.82
2023-04-30T21:35:13.475Z,99544.73
2023-04-30T21:40:20.957Z,99544.86
2023-04-30T21:45:28.187Z,99546.59
2023-04-30T21:50:36.609Z,99546.45
2023-04-30T21:55:43.780Z,99550.23
2023-04-30T22:00:49.840Z,99551.11
2023-04-30T22:05:57.320Z,99553.27
2023-04-30T22:11:05.096Z,99558.48
2023-04-30T22:16:12.840Z,99561.67
2023-04-30T22:21:19.995Z,99566.19
2023-04-30T22:26:27.925Z,99571.54
2023-04-30T22:31:35.133Z,99570.96
2023-04-30T22:36:42.539Z,99575.55
2023-04-30T22:41:48.489Z,99578.18
2023-04-30T22:46:58.289Z,99583.87
2023-04-30T22:52:05.721Z,99584.36
2023-04-30T22:57:12.916Z,99585.73
2023-04-30T23:02:19.327Z,99588.27
2023-04-30T23:07:26.898Z,99595.66
2023-04-30T23:12:35.249Z,99595.20
2023-04-30T23:17:42.496Z,99594.36
2023-04-30T23:22:48.106Z,99593.81
2023-04-30T23:27:55.434Z,99596.64
2023-04-30T23:33:01.017Z,99594.16
2023-04-30T23:38:08.237Z,99594.92
2023-04-30T23:43:15.347Z,99596.65
2023-04-30T23:48:22.679Z,99597.70
2023-04-30T23:53:30.064Z,99600.79
2023-04-30T23:58:37.586Z,99605.34
